Time;durP1;ratioP1;P1;durP2;ratioP2;P2;SDS_P1;SDS_P2;PMS_P1;PMS_P2;Temp;Humidity;BMP_temperature;BMP_pressure;BME280_temperature;BME280_humidity;BME280_pressure;Samples;Min_cycle;Max_cycle;Signal;HPM_P1;HPM_P2
2021/09/19 00:01:18;;;;;;;3.92;2.60;;;15.20;99.90;;;;;;4799037;29;20503;-94
2021/09/19 00:03:44;;;;;;;9.05;2.65;;;15.20;99.90;;;;;;4806318;29;20057;-94
2021/09/19 00:06:09;;;;;;;7.35;2.97;;;15.20;99.90;;;;;;4793945;29;20054;-92
2021/09/19 00:08:35;;;;;;;5.07;2.40;;;15.20;99.90;;;;;;4805661;29;20038;-93
2021/09/19 00:11:01;;;;;;;6.78;2.58;;;15.20;99.90;;;;;;4807294;29;20131;-94
2021/09/19 00:13:27;;;;;;;14.18;3.33;;;15.20;99.90;;;;;;4782445;29;20448;-95
2021/09/19 00:15:52;;;;;;;5.15;2.50;;;15.20;99.90;;;;;;4793498;29;20050;-96
2021/09/19 00:18:18;;;;;;;14.20;3.30;;;15.20;99.90;;;;;;4793003;29;20051;-92
2021/09/19 00:20:47;;;;;;;6.38;2.70;;;15.20;99.90;;;;;;4808030;29;20050;-93
2021/09/19 00:23:14;;;;;;;6.30;2.50;;;15.20;99.90;;;;;;4804208;29;20051;-93
2021/09/19 00:25:39;;;;;;;5.43;2.78;;;15.20;99.90;;;;;;4782717;29;20126;-94
2021/09/19 00:28:06;;;;;;;11.10;3.00;;;15.20;99.90;;;;;;4794603;29;20058;-95
2021/09/19 00:30:32;;;;;;;5.50;2.70;;;15.10;99.90;;;;;;4782510;29;20046;-96
2021/09/19 00:32:59;;;;;;;6.95;3.00;;;15.10;99.90;;;;;;4777771;29;20134;-93
2021/09/19 00:35:26;;;;;;;5.93;2.47;;;15.10;99.90;;;;;;4777214;29;20055;-95
2021/09/19 00:37:53;;;;;;;7.90;2.80;;;15.10;99.90;;;;;;4797907;29;20058;-95
2021/09/19 00:40:19;;;;;;;9.02;2.58;;;15.00;99.90;;;;;;4804263;29;20492;-94
2021/09/19 00:42:45;;;;;;;12.05;3.22;;;15.10;99.90;;;;;;4819388;29;20111;-95
2021/09/19 00:45:14;;;;;;;13.80;2.85;;;15.00;99.90;;;;;;4806249;29;20571;-92
2021/09/19 00:47:40;;;;;;;9.20;2.70;;;15.00;99.90;;;;;;4781003;29;20058;-96
2021/09/19 00:50:08;;;;;;;4.75;2.38;;;15.00;99.90;;;;;;4787195;29;20069;-95
2021/09/19 00:52:37;;;;;;;5.38;2.90;;;15.00;99.90;;;;;;4790021;29;20090;-95
2021/09/19 00:55:03;;;;;;;7.18;2.40;;;15.00;99.90;;;;;;4787639;29;20218;-96
2021/09/19 00:57:29;;;;;;;6.25;2.80;;;14.90;99.90;;;;;;4797031;29;20086;-96
2021/09/19 00:59:55;;;;;;;6.93;2.72;;;14.90;99.90;;;;;;4805568;29;20046;-96
2021/09/19 01:02:21;;;;;;;8.45;2.70;;;14.90;99.90;;;;;;4786964;29;20509;-94
2021/09/19 01:04:47;;;;;;;5.53;2.63;;;14.90;99.90;;;;;;4797184;29;20050;-96
2021/09/19 01:07:14;;;;;;;5.85;2.20;;;14.90;99.90;;;;;;4788841;29;20612;-96
2021/09/19 01:09:40;;;;;;;2.90;2.35;;;14.90;99.90;;;;;;4816477;29;20054;-95
2021/09/19 01:12:08;;;;;;;10.32;2.60;;;14.90;99.90;;;;;;4789589;29;20116;-94
2021/09/19 01:14:36;;;;;;;11.27;2.53;;;14.80;99.90;;;;;;4812352;29;20103;-94
2021/09/19 01:17:02;;;;;;;5.78;2.55;;;14.80;99.90;;;;;;4794555;29;20918;-94
2021/09/19 01:19:27;;;;;;;5.50;2.50;;;14.80;99.90;;;;;;4791021;29;20059;-92
2021/09/19 01:21:53;;;;;;;12.52;2.83;;;14.80;99.90;;;;;;4764829;29;20046;-94
2021/09/19 01:24:21;;;;;;;7.93;2.53;;;14.80;99.90;;;;;;4819814;29;20061;-95
2021/09/19 01:26:47;;;;;;;6.80;2.45;;;14.70;99.90;;;;;;4792062;29;20042;-94
2021/09/19 01:29:12;;;;;;;6.80;2.80;;;14.70;99.90;;;;;;4795383;29;20100;-95
2021/09/19 01:31:38;;;;;;;12.25;3.15;;;14.70;99.90;;;;;;4779104;29;20462;-94
2021/09/19 01:34:04;;;;;;;3.95;2.33;;;14.70;99.90;;;;;;4796039;29;20092;-95
2021/09/19 01:36:34;;;;;;;12.23;2.25;;;14.60;99.90;;;;;;4800349;29;20062;-94
2021/09/19 01:39:01;;;;;;;2.80;2.10;;;14.60;99.90;;;;;;4783090;29;20103;-94
2021/09/19 01:41:26;;;;;;;3.97;2.00;;;14.60;99.90;;;;;;4790776;29;20080;-92
2021/09/19 01:43:54;;;;;;;3.30;2.42;;;14.60;99.90;;;;;;4798471;29;20168;-93
2021/09/19 01:46:20;;;;;;;6.50;2.47;;;14.50;99.90;;;;;;4789212;29;20144;-93
2021/09/19 01:48:46;;;;;;;10.13;2.42;;;14.50;99.90;;;;;;4791060;29;20050;-94
2021/09/19 01:51:12;;;;;;;7.28;2.60;;;14.50;99.90;;;;;;4806534;29;20053;-94
2021/09/19 01:53:38;;;;;;;9.82;2.22;;;14.40;99.90;;;;;;4792361;29;20050;-94
2021/09/19 01:56:05;;;;;;;4.32;2.67;;;14.40;99.90;;;;;;4807076;29;20140;-94
2021/09/19 01:58:31;;;;;;;8.77;2.83;;;14.40;99.90;;;;;;4791130;29;20062;-94
2021/09/19 02:00:59;;;;;;;5.72;2.83;;;14.40;99.90;;;;;;4775366;29;20047;-95
2021/09/19 02:03:25;;;;;;;2.50;2.20;;;14.40;99.90;;;;;;4790971;29;20050;-94
2021/09/19 02:05:51;;;;;;;7.45;2.10;;;14.30;99.90;;;;;;4791176;29;20050;-95
2021/09/19 02:08:17;;;;;;;6.28;2.20;;;14.30;99.90;;;;;;4816107;29;20499;-93
2021/09/19 02:10:43;;;;;;;4.60;1.88;;;14.20;99.90;;;;;;4790500;29;20402;-95
2021/09/19 02:13:08;;;;;;;6.68;2.17;;;14.20;99.90;;;;;;4805440;29;20050;-95
2021/09/19 02:15:34;;;;;;;6.88;2.33;;;14.20;99.90;;;;;;4805136;29;20050;-93
2021/09/19 02:18:00;;;;;;;7.05;2.30;;;14.20;99.90;;;;;;4789308;29;20047;-95
2021/09/19 02:20:26;;;;;;;2.95;1.85;;;14.20;99.90;;;;;;4788776;29;20134;-94
2021/09/19 02:22:51;;;;;;;3.78;2.10;;;14.20;99.90;;;;;;4788359;29;20051;-94
2021/09/19 02:25:17;;;;;;;5.82;2.13;;;14.10;99.90;;;;;;4805677;29;20061;-94
2021/09/19 02:27:43;;;;;;;4.35;2.35;;;14.10;99.90;;;;;;4794474;29;20047;-94
2021/09/19 02:30:12;;;;;;;3.95;2.13;;;14.10;99.90;;;;;;4811873;29;20129;-95
2021/09/19 02:32:39;;;;;;;9.50;2.63;;;14.10;99.90;;;;;;4801662;29;20065;-94
2021/09/19 02:35:07;;;;;;;7.25;2.50;;;14.10;99.90;;;;;;4792045;29;20054;-96
2021/09/19 02:37:34;;;;;;;8.15;2.30;;;14.00;99.90;;;;;;4794558;29;20054;-94
2021/09/19 02:40:00;;;;;;;3.28;2.42;;;14.00;99.90;;;;;;4788851;29;20051;-94
2021/09/19 02:42:25;;;;;;;8.60;2.28;;;13.90;99.90;;;;;;4807509;29;20046;-94
2021/09/19 02:44:51;;;;;;;5.57;2.33;;;13.90;99.90;;;;;;4777727;29;20058;-95
2021/09/19 02:47:17;;;;;;;6.75;2.22;;;13.90;99.90;;;;;;4780947;29;20496;-95
2021/09/19 02:49:42;;;;;;;6.75;2.47;;;13.90;99.90;;;;;;4781076;29;20057;-94
2021/09/19 02:52:08;;;;;;;6.57;2.92;;;13.80;99.90;;;;;;4788883;29;20125;-94
2021/09/19 02:54:34;;;;;;;6.78;2.00;;;13.80;99.90;;;;;;4784376;29;20488;-96
2021/09/19 02:56:59;;;;;;;22.25;2.80;;;13.80;99.90;;;;;;4787558;29;20047;-95
2021/09/19 02:59:25;;;;;;;6.47;2.40;;;13.80;99.90;;;;;;4782650;29;20050;-95
2021/09/19 03:01:51;;;;;;;9.68;2.60;;;13.80;99.90;;;;;;4788944;29;20050;-94
2021/09/19 03:04:16;;;;;;;6.82;2.90;;;13.70;99.90;;;;;;4788154;29;20107;-93
2021/09/19 03:06:42;;;;;;;14.38;2.25;;;13.70;99.90;;;;;;4799646;29;20218;-94
2021/09/19 03:09:08;;;;;;;3.85;2.53;;;13.70;99.90;;;;;;4802929;29;20399;-96
2021/09/19 03:11:34;;;;;;;6.10;2.63;;;13.60;99.90;;;;;;4806733;29;20054;-93
2021/09/19 03:13:59;;;;;;;8.05;2.92;;;13.60;99.90;;;;;;4797262;29;20054;-94
2021/09/19 03:16:25;;;;;;;10.40;3.35;;;13.60;99.90;;;;;;4803714;29;20050;-96
2021/09/19 03:18:51;;;;;;;4.60;2.58;;;13.50;99.90;;;;;;4801628;29;20046;-96
2021/09/19 03:21:17;;;;;;;4.43;2.47;;;13.50;99.90;;;;;;4809716;29;20372;-96
2021/09/19 03:23:43;;;;;;;19.98;3.25;;;13.50;99.90;;;;;;4808192;29;20133;-93
2021/09/19 03:26:08;;;;;;;5.75;2.83;;;13.50;99.90;;;;;;4794130;29;20058;-94
2021/09/19 03:28:34;;;;;;;3.55;2.50;;;13.50;99.90;;;;;;4793404;29;20047;-92
2021/09/19 03:31:00;;;;;;;6.18;2.78;;;13.50;99.90;;;;;;4808710;29;20050;-94
2021/09/19 03:33:25;;;;;;;6.68;2.72;;;13.40;99.90;;;;;;4793464;29;20110;-93
2021/09/19 03:35:51;;;;;;;4.00;2.70;;;13.40;99.90;;;;;;4811248;29;20136;-93
2021/09/19 03:38:17;;;;;;;8.07;2.95;;;13.40;99.90;;;;;;4779924;29;20388;-92
2021/09/19 03:40:43;;;;;;;10.18;2.88;;;13.40;99.90;;;;;;4785306;29;20417;-95
2021/09/19 03:43:09;;;;;;;14.27;4.28;;;13.30;99.90;;;;;;4793754;29;20124;-94
2021/09/19 03:45:35;;;;;;;4.53;2.63;;;13.30;99.90;;;;;;4808272;29;20065;-92
2021/09/19 03:48:06;;;;;;;10.25;2.72;;;13.20;99.90;;;;;;4808205;29;20046;-92
2021/09/19 03:50:32;;;;;;;9.75;3.08;;;13.20;99.90;;;;;;4808654;29;20084;-93
2021/09/19 03:52:58;;;;;;;8.15;3.10;;;13.20;99.90;;;;;;4795945;29;20086;-94
2021/09/19 03:55:24;;;;;;;12.13;3.20;;;13.10;99.90;;;;;;4812671;29;20046;-96
2021/09/19 03:57:50;;;;;;;6.43;2.55;;;13.10;99.90;;;;;;4811455;29;20057;-94
2021/09/19 04:00:16;;;;;;;6.72;3.03;;;13.10;99.90;;;;;;4778650;29;20057;-94
2021/09/19 04:02:42;;;;;;;5.05;2.97;;;13.10;99.90;;;;;;4793301;29;20563;-94
2021/09/19 04:05:09;;;;;;;5.18;2.90;;;13.10;99.90;;;;;;4795405;29;20133;-95
2021/09/19 04:07:35;;;;;;;4.25;3.38;;;13.00;99.90;;;;;;4791059;29;20128;-93
2021/09/19 04:10:02;;;;;;;7.20;3.00;;;13.00;99.90;;;;;;4781271;29;20115;-95
2021/09/19 04:12:27;;;;;;;13.55;3.13;;;13.00;99.90;;;;;;4815664;29;20098;-95
2021/09/19 04:14:53;;;;;;;15.30;3.92;;;13.00;99.90;;;;;;4790437;29;20393;-96
2021/09/19 04:17:19;;;;;;;9.25;3.30;;;13.00;99.90;;;;;;4790911;29;20051;-95
2021/09/19 04:19:44;;;;;;;5.05;3.20;;;12.90;99.90;;;;;;4787619;29;20134;-95
2021/09/19 04:22:10;;;;;;;10.50;3.20;;;12.90;99.90;;;;;;4803753;29;20387;-95
2021/09/19 04:24:36;;;;;;;11.80;3.53;;;12.90;99.90;;;;;;4793168;29;20046;-93
2021/09/19 04:27:02;;;;;;;4.78;2.92;;;12.90;99.90;;;;;;4799868;29;20058;-95
2021/09/19 04:29:27;;;;;;;6.03;3.25;;;12.90;99.90;;;;;;4790773;29;20055;-94
2021/09/19 04:31:53;;;;;;;6.00;3.17;;;12.80;99.90;;;;;;4790447;29;20047;-94
2021/09/19 04:34:19;;;;;;;7.45;2.88;;;12.80;99.90;;;;;;4799457;29;20073;-96
2021/09/19 04:36:44;;;;;;;6.18;3.33;;;12.80;99.90;;;;;;4792311;29;20051;-95
2021/09/19 04:39:10;;;;;;;4.28;3.00;;;12.80;99.90;;;;;;4797310;29;20054;-95
2021/09/19 04:41:36;;;;;;;7.30;2.88;;;12.70;99.90;;;;;;4794304;29;20436;-95
2021/09/19 04:44:01;;;;;;;4.82;2.92;;;12.70;99.90;;;;;;4784542;29;20051;-95
2021/09/19 04:46:27;;;;;;;6.93;3.38;;;12.70;99.90;;;;;;4804252;29;20076;-94
2021/09/19 04:48:54;;;;;;;4.65;3.53;;;12.70;99.90;;;;;;4788607;29;20129;-95
2021/09/19 04:51:20;;;;;;;5.43;3.15;;;12.60;99.90;;;;;;4792874;29;20126;-94
2021/09/19 04:53:46;;;;;;;9.90;3.50;;;12.60;99.90;;;;;;4819965;29;20556;-94
2021/09/19 04:56:12;;;;;;;5.18;3.30;;;12.60;99.90;;;;;;4794351;29;20050;-94
2021/09/19 04:58:37;;;;;;;5.70;2.85;;;12.60;99.90;;;;;;4793403;29;20430;-95
2021/09/19 05:01:04;;;;;;;5.07;3.00;;;12.60;99.90;;;;;;4797815;29;20396;-95
2021/09/19 05:03:29;;;;;;;5.15;2.90;;;12.60;99.90;;;;;;4798690;29;20086;-96
2021/09/19 05:05:55;;;;;;;5.22;3.10;;;12.50;99.90;;;;;;4789231;29;20074;-95
2021/09/19 05:08:21;;;;;;;3.85;3.10;;;12.50;99.90;;;;;;4799494;29;20050;-94
2021/09/19 05:10:48;;;;;;;4.07;2.78;;;12.40;99.90;;;;;;4787235;29;20112;-96
2021/09/19 05:13:13;;;;;;;11.20;3.60;;;12.40;99.90;;;;;;4781019;29;20047;-93
2021/09/19 05:15:39;;;;;;;9.23;3.50;;;12.40;99.90;;;;;;4787677;29;20509;-93
2021/09/19 05:18:05;;;;;;;7.45;3.35;;;12.30;99.90;;;;;;4797702;29;20471;-92
2021/09/19 05:20:31;;;;;;;6.00;3.67;;;12.30;99.90;;;;;;4799002;29;20050;-93
2021/09/19 05:22:57;;;;;;;7.95;3.88;;;12.30;99.90;;;;;;4794942;29;20134;-96
2021/09/19 05:25:23;;;;;;;4.60;3.35;;;12.30;99.90;;;;;;4785488;29;20126;-96
2021/09/19 05:27:50;;;;;;;5.93;3.50;;;12.20;99.90;;;;;;4786421;29;20061;-94
2021/09/19 05:30:16;;;;;;;9.75;4.13;;;12.20;99.90;;;;;;4803902;29;20404;-95
2021/09/19 05:32:42;;;;;;;14.68;3.88;;;12.20;99.90;;;;;;4790922;29;20066;-95
2021/09/19 05:35:09;;;;;;;8.65;3.95;;;12.20;99.90;;;;;;4786339;29;20469;-93
2021/09/19 05:37:35;;;;;;;12.40;3.53;;;12.20;99.90;;;;;;4799345;29;20515;-94
2021/09/19 05:40:01;;;;;;;6.70;3.30;;;12.20;99.90;;;;;;4802992;29;20514;-94
2021/09/19 05:42:27;;;;;;;7.82;3.40;;;12.30;99.90;;;;;;4801701;29;20054;-94
2021/09/19 05:44:52;;;;;;;7.82;3.63;;;12.30;99.90;;;;;;4791959;29;20046;-95
2021/09/19 05:47:18;;;;;;;6.70;3.92;;;12.30;99.90;;;;;;4789825;29;20054;-94
2021/09/19 05:49:44;;;;;;;6.93;4.05;;;12.30;99.90;;;;;;4785511;29;20042;-93
2021/09/19 05:52:09;;;;;;;6.30;4.22;;;12.40;99.90;;;;;;4788532;29;20062;-94
2021/09/19 05:54:35;;;;;;;9.85;3.60;;;12.40;99.90;;;;;;4780724;29;20508;-93
2021/09/19 05:57:01;;;;;;;6.68;3.92;;;12.40;99.90;;;;;;4785339;29;20062;-94
2021/09/19 05:59:27;;;;;;;12.98;4.00;;;12.40;99.90;;;;;;4800684;29;20508;-93
2021/09/19 06:01:53;;;;;;;8.63;3.42;;;12.40;99.90;;;;;;4797838;29;20518;-94
2021/09/19 06:04:19;;;;;;;21.63;4.88;;;12.50;99.90;;;;;;4763892;29;20469;-93
2021/09/19 06:06:45;;;;;;;8.90;3.95;;;12.50;99.90;;;;;;4799147;29;20073;-92
2021/09/19 06:09:11;;;;;;;9.52;3.47;;;12.50;99.90;;;;;;4797495;29;20488;-93
2021/09/19 06:11:37;;;;;;;11.32;3.78;;;12.50;99.90;;;;;;4790669;29;20050;-94
2021/09/19 06:14:02;;;;;;;8.43;3.97;;;12.50;99.90;;;;;;4796393;29;20042;-94
2021/09/19 06:16:28;;;;;;;11.07;3.85;;;12.50;99.90;;;;;;4790349;29;20057;-93
2021/09/19 06:18:53;;;;;;;4.35;3.65;;;12.50;99.90;;;;;;4804318;29;20050;-94
2021/09/19 06:21:19;;;;;;;8.65;3.83;;;12.50;99.90;;;;;;4804306;29;20051;-93
2021/09/19 06:23:45;;;;;;;7.65;3.85;;;12.60;99.90;;;;;;4783435;29;20058;-92
2021/09/19 06:26:11;;;;;;;6.00;4.00;;;12.60;99.90;;;;;;4793638;29;20078;-92
2021/09/19 06:28:36;;;;;;;11.07;5.30;;;12.60;99.90;;;;;;4788311;29;20051;-94
2021/09/19 06:31:02;;;;;;;9.43;4.30;;;12.60;99.90;;;;;;4784245;29;20084;-96
2021/09/19 06:33:28;;;;;;;12.18;4.35;;;12.60;99.90;;;;;;4761025;29;20120;-95
2021/09/19 06:35:53;;;;;;;14.27;4.20;;;12.60;99.90;;;;;;4764047;30;20047;-96
2021/09/19 06:38:20;;;;;;;5.50;3.60;;;12.70;99.90;;;;;;4769160;29;20055;-94
2021/09/19 06:40:45;;;;;;;3.55;3.25;;;12.70;99.90;;;;;;4777061;29;20047;-92
2021/09/19 06:43:11;;;;;;;8.65;3.95;;;12.70;99.90;;;;;;4765881;29;20051;-94
2021/09/19 06:45:36;;;;;;;5.50;3.83;;;12.70;99.90;;;;;;4757004;30;20108;-95
2021/09/19 06:48:02;;;;;;;7.85;4.10;;;12.70;99.90;;;;;;4777170;29;20051;-96
2021/09/19 06:50:28;;;;;;;10.38;5.07;;;12.70;99.90;;;;;;4762581;29;20059;-96
2021/09/19 06:52:54;;;;;;;9.27;4.07;;;12.70;99.90;;;;;;4767208;30;20048;-96
2021/09/19 06:55:20;;;;;;;8.18;4.47;;;12.70;99.90;;;;;;4761169;29;20077;-94
2021/09/19 06:57:46;;;;;;;12.65;4.03;;;12.70;99.90;;;;;;4766211;30;20429;-94
2021/09/19 07:00:13;;;;;;;7.63;3.83;;;12.60;99.90;;;;;;4765908;29;20067;-94
2021/09/19 07:02:38;;;;;;;8.85;4.47;;;12.60;99.90;;;;;;4768074;30;20075;-95
2021/09/19 07:05:05;;;;;;;10.07;4.03;;;12.60;99.90;;;;;;4776710;29;20052;-94
2021/09/19 07:07:30;;;;;;;6.85;3.92;;;12.60;99.90;;;;;;4758989;29;20512;-96
2021/09/19 07:09:56;;;;;;;9.18;4.72;;;12.70;99.90;;;;;;4765771;30;20047;-95
2021/09/19 07:12:22;;;;;;;9.07;3.97;;;12.70;99.90;;;;;;4779470;29;20047;-96
2021/09/19 07:14:47;;;;;;;5.97;3.70;;;12.70;99.90;;;;;;4775648;30;20055;-95
2021/09/19 07:17:14;;;;;;;9.05;4.30;;;12.70;99.90;;;;;;4772344;30;20074;-96
2021/09/19 07:19:39;;;;;;;9.07;4.18;;;12.80;99.90;;;;;;4779981;29;20516;-94
2021/09/19 07:22:05;;;;;;;12.05;4.85;;;12.80;99.90;;;;;;4776617;30;20047;-96
2021/09/19 07:24:31;;;;;;;5.50;4.05;;;12.90;99.90;;;;;;4779973;29;20417;-95
2021/09/19 07:26:56;;;;;;;10.23;4.38;;;12.90;99.90;;;;;;4782634;29;20062;-96
2021/09/19 07:29:22;;;;;;;11.50;4.28;;;12.90;99.90;;;;;;4776380;29;20063;-96
2021/09/19 07:31:51;;;;;;;8.77;3.80;;;13.00;99.90;;;;;;4794576;29;20055;-96
2021/09/19 07:34:17;;;;;;;10.82;3.97;;;13.10;99.90;;;;;;4776741;30;20124;-95
2021/09/19 07:36:45;;;;;;;5.72;3.80;;;13.10;99.90;;;;;;4780292;30;20062;-93
2021/09/19 07:39:11;;;;;;;5.20;4.10;;;13.10;99.90;;;;;;4792564;29;20111;-94
2021/09/19 07:41:37;;;;;;;4.75;3.65;;;13.20;99.90;;;;;;4806735;29;20050;-96
2021/09/19 07:44:03;;;;;;;5.05;3.83;;;13.20;99.90;;;;;;4783331;29;20147;-94
2021/09/19 07:46:29;;;;;;;8.15;3.80;;;13.30;99.90;;;;;;4789276;29;20051;-96
2021/09/19 07:48:55;;;;;;;9.40;3.95;;;13.30;99.90;;;;;;4784130;29;20130;-92
2021/09/19 07:51:23;;;;;;;10.25;3.65;;;13.30;99.90;;;;;;4773242;30;20079;-96
2021/09/19 07:53:50;;;;;;;4.18;3.53;;;13.30;99.90;;;;;;4791700;29;20047;-96
2021/09/19 07:56:16;;;;;;;7.32;3.90;;;13.40;99.90;;;;;;4785706;29;20179;-96
2021/09/19 07:58:42;;;;;;;6.30;3.42;;;13.40;99.90;;;;;;4785529;29;20570;-95
2021/09/19 08:01:07;;;;;;;8.50;4.00;;;13.50;99.90;;;;;;4769077;30;20136;-96
2021/09/19 08:03:33;;;;;;;10.75;3.75;;;13.50;99.90;;;;;;4775304;29;20050;-96
2021/09/19 08:05:59;;;;;;;8.40;4.03;;;13.60;99.90;;;;;;4766394;30;20062;-94
2021/09/19 08:08:24;;;;;;;8.05;4.45;;;13.60;99.90;;;;;;4781568;29;20050;-95
2021/09/19 08:10:51;;;;;;;7.00;3.80;;;13.60;99.90;;;;;;4776394;29;20625;-96
2021/09/19 08:13:17;;;;;;;5.60;3.80;;;13.70;99.90;;;;;;4776539;30;20055;-95
2021/09/19 08:15:42;;;;;;;6.28;4.00;;;13.80;99.90;;;;;;4775845;29;20843;-96
2021/09/19 08:18:08;;;;;;;8.23;4.63;;;13.80;99.90;;;;;;4791804;29;20083;-96
2021/09/19 08:20:34;;;;;;;7.82;3.85;;;13.80;99.90;;;;;;4782538;29;20060;-94
2021/09/19 08:23:00;;;;;;;7.47;3.70;;;13.80;99.90;;;;;;4772172;30;20052;-96
2021/09/19 08:25:26;;;;;;;6.53;3.80;;;13.90;99.90;;;;;;4792097;29;20051;-96
2021/09/19 08:27:52;;;;;;;7.50;3.67;;;13.90;99.90;;;;;;4774458;29;20204;-96
2021/09/19 08:30:18;;;;;;;7.95;3.58;;;13.90;99.90;;;;;;4790407;29;20114;-96
2021/09/19 08:32:44;;;;;;;9.68;3.90;;;14.00;99.90;;;;;;4796016;29;20066;-95
2021/09/19 08:35:12;;;;;;;6.93;4.00;;;14.00;99.90;;;;;;4811270;29;20063;-95
2021/09/19 08:37:38;;;;;;;9.40;4.07;;;14.10;99.90;;;;;;4797343;29;20054;-96
2021/09/19 08:40:06;;;;;;;4.45;3.63;;;14.10;99.90;;;;;;4802961;29;20396;-96
2021/09/19 08:42:33;;;;;;;7.15;4.00;;;14.20;99.90;;;;;;4813942;29;20042;-96
2021/09/19 08:44:59;;;;;;;8.57;4.22;;;14.20;99.90;;;;;;4799216;29;20142;-91
2021/09/19 08:47:29;;;;;;;8.82;3.88;;;14.30;99.90;;;;;;4818401;29;20050;-96
2021/09/19 08:49:55;;;;;;;7.55;3.90;;;14.30;99.90;;;;;;4807421;29;20055;-96
2021/09/19 08:52:20;;;;;;;5.43;3.80;;;14.40;99.90;;;;;;4785383;29;20502;-95
2021/09/19 08:54:46;;;;;;;6.97;3.95;;;14.40;99.90;;;;;;4794218;29;20097;-94
2021/09/19 08:57:12;;;;;;;4.88;3.92;;;14.50;99.90;;;;;;4815502;29;20054;-96
2021/09/19 08:59:50;;;;;;;7.65;3.55;;;14.60;99.90;;;;;;4815526;29;20056;-96
2021/09/19 09:02:17;;;;;;;7.38;3.60;;;14.70;99.90;;;;;;4815031;29;20126;-96
2021/09/19 09:04:44;;;;;;;4.68;3.67;;;14.80;99.90;;;;;;4826631;29;20058;-94
2021/09/19 09:07:11;;;;;;;4.75;3.60;;;14.80;99.90;;;;;;4819342;29;20148;-93
2021/09/19 09:09:50;;;;;;;6.35;3.45;;;14.90;99.90;;;;;;4809468;29;20051;-96
2021/09/19 09:12:15;;;;;;;5.60;3.50;;;15.00;99.90;;;;;;4810307;29;20133;-96
2021/09/19 09:14:55;;;;;;;5.43;3.40;;;15.10;99.90;;;;;;4783752;29;20493;-96
2021/09/19 09:17:25;;;;;;;4.43;3.30;;;15.10;99.90;;;;;;4792224;29;20047;-96
2021/09/19 09:19:56;;;;;;;6.47;4.07;;;15.10;99.90;;;;;;4802157;29;20047;-95
2021/09/19 09:22:29;;;;;;;7.38;3.53;;;15.20;99.90;;;;;;4822460;29;20070;-96
2021/09/19 09:25:12;;;;;;;6.75;3.38;;;15.30;99.90;;;;;;4827525;29;20187;-94
2021/09/19 09:27:41;;;;;;;4.93;3.63;;;15.30;99.90;;;;;;4803163;29;20129;-96
2021/09/19 09:30:13;;;;;;;5.65;3.60;;;15.40;99.90;;;;;;4813531;29;20050;-96
2021/09/19 09:32:57;;;;;;;7.78;3.55;;;15.40;99.90;;;;;;4814777;29;20053;-96
2021/09/19 09:35:42;;;;;;;6.43;3.25;;;15.50;99.90;;;;;;4802048;29;20050;-96
2021/09/19 09:38:20;;;;;;;6.50;3.40;;;15.40;99.90;;;;;;4815907;29;20054;-96
2021/09/19 09:40:47;;;;;;;7.10;3.88;;;15.50;99.90;;;;;;4815249;29;20094;-96
2021/09/19 09:43:14;;;;;;;11.52;3.95;;;15.60;99.90;;;;;;4813629;29;20069;-95
2021/09/19 09:45:42;;;;;;;5.75;3.30;;;15.70;99.90;;;;;;4816338;29;20050;-96
2021/09/19 09:48:26;;;;;;;3.42;3.10;;;15.80;99.90;;;;;;4810281;29;20393;-96
2021/09/19 09:50:53;;;;;;;9.98;3.78;;;15.90;99.90;;;;;;4795827;29;20054;-95
2021/09/19 09:53:22;;;;;;;8.60;3.55;;;15.90;99.90;;;;;;4792751;29;20066;-96
2021/09/19 09:55:48;;;;;;;5.80;3.75;;;15.90;99.90;;;;;;4821525;29;20103;-96
2021/09/19 09:58:18;;;;;;;4.97;3.80;;;16.00;99.90;;;;;;4808705;29;20061;-96
2021/09/19 10:00:45;;;;;;;4.88;3.53;;;16.00;99.90;;;;;;4817297;29;20046;-95
2021/09/19 10:03:11;;;;;;;6.30;3.67;;;16.00;99.90;;;;;;4812896;29;20050;-96
2021/09/19 10:05:38;;;;;;;7.22;4.00;;;16.00;99.90;;;;;;4799631;29;20184;-96
2021/09/19 10:08:04;;;;;;;6.40;3.45;;;16.10;99.90;;;;;;4807155;29;20046;-91
2021/09/19 10:10:33;;;;;;;6.93;3.92;;;16.20;99.90;;;;;;4793533;29;20049;-94
2021/09/19 10:12:59;;;;;;;6.93;3.83;;;16.30;99.90;;;;;;4810556;29;20050;-94
2021/09/19 10:15:26;;;;;;;11.93;4.00;;;16.30;99.90;;;;;;4809395;29;20054;-96
2021/09/19 10:17:53;;;;;;;10.85;4.10;;;16.40;99.90;;;;;;4806988;29;20088;-95
2021/09/19 10:20:26;;;;;;;5.88;3.38;;;16.40;99.90;;;;;;4810051;29;20066;-96
2021/09/19 10:23:23;;;;;;;4.88;3.38;;;16.50;99.90;;;;;;4811579;29;20042;-96
2021/09/19 10:25:53;;;;;;;6.95;3.72;;;16.60;99.90;;;;;;4807695;29;20062;-96
2021/09/19 10:28:31;;;;;;;;;;;16.70;99.90;;;;;;4805270;29;20054;-95
2021/09/19 10:31:09;;;;;;;5.32;3.58;;;16.70;99.90;;;;;;4807624;29;19929;-96
2021/09/19 10:33:42;;;;;;;4.97;3.78;;;16.80;99.90;;;;;;4785526;29;20062;-95
2021/09/19 10:36:23;;;;;;;6.88;3.75;;;16.80;99.90;;;;;;4809529;29;20058;-92
2021/09/19 10:38:49;;;;;;;5.55;3.80;;;16.90;99.90;;;;;;4801585;29;20130;-96
2021/09/19 10:41:22;;;;;;;5.85;3.88;;;16.90;99.90;;;;;;4802439;29;20196;-96
2021/09/19 10:43:55;;;;;;;10.85;3.50;;;16.90;99.90;;;;;;4801248;29;20050;-95
2021/09/19 10:46:36;;;;;;;6.72;3.30;;;16.90;99.90;;;;;;4788371;29;20054;-96
2021/09/19 10:49:19;;;;;;;6.15;3.50;;;16.90;99.90;;;;;;4808734;29;20053;-94
2021/09/19 10:52:00;;;;;;;5.72;3.78;;;17.00;99.90;;;;;;4808730;29;20053;-96
2021/09/19 10:54:49;;;;;;;8.07;3.20;;;17.00;99.90;;;;;;4802981;29;20186;-96
2021/09/19 10:57:19;;;;;;;3.73;3.00;;;17.00;99.90;;;;;;4792987;29;20054;-95
2021/09/19 11:00:17;;;;;;;2.90;2.53;;;17.00;99.90;;;;;;4805785;29;20300;-95
2021/09/19 11:02:59;;;;;;;3.13;2.80;;;17.10;99.90;;;;;;4805746;29;20491;-95
2021/09/19 11:05:29;;;;;;;5.38;2.95;;;17.10;99.90;;;;;;4805667;29;20058;-96
2021/09/19 11:08:07;;;;;;;;;;;17.10;99.90;;;;;;4813473;29;20052;-93
2021/09/19 11:10:56;;;;;;;4.97;2.85;;;17.10;99.90;;;;;;4788399;29;20011;-94
2021/09/19 11:13:34;;;;;;;5.47;2.35;;;17.10;99.90;;;;;;4768192;29;20059;-96
2021/09/19 11:16:03;;;;;;;3.30;2.55;;;17.10;99.90;;;;;;4793900;29;20165;-96
2021/09/19 11:18:30;;;;;;;2.88;2.05;;;17.20;99.90;;;;;;4804358;29;20051;-96
2021/09/19 11:21:31;;;;;;;3.63;2.03;;;17.40;99.90;;;;;;4802820;29;20065;-95
2021/09/19 11:24:02;;;;;;;5.18;2.22;;;17.50;99.90;;;;;;4806565;29;20478;-96
2021/09/19 11:26:35;;;;;;;4.78;2.28;;;17.50;99.90;;;;;;4800907;29;20535;-95
2021/09/19 11:29:14;;;;;;;6.07;2.03;;;17.50;99.90;;;;;;4799633;29;20054;-96
2021/09/19 11:31:42;;;;;;;4.63;1.92;;;17.60;99.90;;;;;;4800830;29;20123;-96
2021/09/19 11:34:11;;;;;;;4.45;2.08;;;17.70;99.90;;;;;;4786844;29;20058;-95
2021/09/19 11:36:47;;;;;;;2.28;1.98;;;17.70;99.90;;;;;;4809020;29;20050;-96
2021/09/19 11:39:14;;;;;;;6.35;2.53;;;17.70;99.90;;;;;;4809187;29;20058;-92
2021/09/19 11:41:42;;;;;;;3.30;2.08;;;17.60;99.90;;;;;;4806070;29;20053;-96
2021/09/19 11:44:13;;;;;;;6.82;2.70;;;17.60;99.90;;;;;;4808799;29;20055;-95
2021/09/19 11:46:45;;;;;;;3.58;2.15;;;17.50;99.90;;;;;;4807632;29;20503;-96
2021/09/19 11:49:11;;;;;;;4.47;1.98;;;17.50;99.90;;;;;;4810776;29;20058;-96
2021/09/19 11:51:39;;;;;;;5.53;2.17;;;17.70;99.90;;;;;;4792848;29;20187;-95
2021/09/19 11:54:05;;;;;;;2.60;2.05;;;17.80;99.90;;;;;;4793413;29;20373;-96
2021/09/19 11:56:32;;;;;;;2.00;1.85;;;17.90;99.90;;;;;;4800580;29;20049;-95
2021/09/19 11:58:58;;;;;;;2.75;1.83;;;17.80;99.90;;;;;;4808832;29;20547;-96
2021/09/19 12:01:25;;;;;;;3.13;2.08;;;17.80;99.90;;;;;;4808670;29;20142;-96
2021/09/19 12:03:52;;;;;;;1.73;1.60;;;17.70;99.90;;;;;;4793201;29;20054;-94
2021/09/19 12:06:18;;;;;;;3.50;1.75;;;17.70;99.90;;;;;;4792060;29;20141;-90
2021/09/19 12:08:45;;;;;;;6.82;1.80;;;17.70;99.90;;;;;;4804591;29;20122;-90
2021/09/19 12:11:11;;;;;;;3.53;2.00;;;17.80;99.90;;;;;;4794814;29;20058;-92
2021/09/19 12:13:39;;;;;;;2.88;1.83;;;18.00;99.90;;;;;;4782134;29;20687;-93
2021/09/19 12:16:12;;;;;;;1.65;1.45;;;18.10;99.90;;;;;;4792217;29;20125;-93
2021/09/19 12:18:44;;;;;;;3.00;1.63;;;18.10;99.90;;;;;;4806761;29;20237;-93
2021/09/19 12:21:14;;;;;;;1.70;1.60;;;18.30;99.90;;;;;;4806213;29;20039;-94
2021/09/19 12:23:48;;;;;;;5.65;1.30;;;18.30;99.90;;;;;;4806497;29;20134;-93
2021/09/19 12:26:23;;;;;;;2.95;1.83;;;18.30;99.90;;;;;;4821980;29;20488;-93
2021/09/19 12:28:53;;;;;;;2.20;1.60;;;18.40;99.90;;;;;;4807023;29;20054;-92
2021/09/19 12:31:54;;;;;;;3.92;2.00;;;18.60;99.90;;;;;;4818513;29;20051;-89
2021/09/19 12:34:21;;;;;;;2.65;1.58;;;18.60;99.90;;;;;;4745610;30;20099;-90
2021/09/19 12:36:53;;;;;;;2.17;1.65;;;18.70;99.90;;;;;;4769403;29;20050;-94
2021/09/19 12:39:33;;;;;;;8.95;1.85;;;18.80;99.90;;;;;;4806321;29;20061;-89
2021/09/19 12:42:05;;;;;;;3.55;1.80;;;18.90;99.90;;;;;;4790315;29;20046;-95
2021/09/19 12:44:33;;;;;;;3.22;1.50;;;18.80;99.90;;;;;;4799720;29;20128;-93
2021/09/19 12:47:02;;;;;;;6.13;2.13;;;19.00;99.90;;;;;;4793754;29;20088;-94
2021/09/19 12:49:33;;;;;;;3.00;1.83;;;18.80;99.90;;;;;;4806064;29;20051;-93